Time;durP1;ratioP1;P1;durP2;ratioP2;P2;SDS_P1;SDS_P2;PMS_P1;PMS_P2;Temp;Humidity;BMP_temperature;BMP_pressure;BME280_temperature;BME280_humidity;BME280_pressure;Samples;Min_cycle;Max_cycle;Signal;HPM_P1;HPM_P2
2023/03/17 00:01:43;;;;;;;11.60;4.90;;;2.10;73.20;;;;;;5008146;28;20452;-54
2023/03/17 00:04:12;;;;;;;8.03;4.40;;;2.10;73.70;;;;;;5006676;28;20431;-53
2023/03/17 00:06:40;;;;;;;8.13;5.20;;;2.10;74.70;;;;;;5008197;28;20673;-52
2023/03/17 00:09:13;;;;;;;6.70;4.33;;;2.10;75.30;;;;;;5005734;28;20557;-53
2023/03/17 00:11:39;;;;;;;12.57;5.30;;;2.10;75.70;;;;;;5010308;28;20465;-53
2023/03/17 00:14:04;;;;;;;14.57;5.97;;;2.00;76.00;;;;;;5001978;28;20434;-53
2023/03/17 00:16:33;;;;;;;12.63;5.83;;;2.10;76.80;;;;;;5008871;28;20707;-53
2023/03/17 00:18:59;;;;;;;11.43;5.40;;;2.00;77.00;;;;;;5005600;28;20239;-54
2023/03/17 00:21:30;;;;;;;8.40;5.70;;;2.00;76.90;;;;;;5001257;28;20509;-52
2023/03/17 00:23:57;;;;;;;10.97;5.00;;;2.00;77.50;;;;;;5008833;28;20184;-54
2023/03/17 00:26:23;;;;;;;11.20;5.50;;;2.00;77.60;;;;;;5011778;28;20423;-52
2023/03/17 00:28:49;;;;;;;9.20;4.93;;;2.00;78.10;;;;;;5007738;28;20424;-55
2023/03/17 00:31:20;;;;;;;6.87;4.37;;;1.90;79.30;;;;;;5007863;28;20176;-52
2023/03/17 00:33:48;;;;;;;9.70;4.50;;;1.90;81.50;;;;;;5007220;28;20797;-52
2023/03/17 00:36:20;;;;;;;11.10;5.27;;;1.90;81.90;;;;;;4999108;28;20499;-52
2023/03/17 00:38:46;;;;;;;13.47;5.07;;;1.90;81.30;;;;;;5008362;28;20432;-53
2023/03/17 00:41:12;;;;;;;11.80;4.53;;;1.90;81.60;;;;;;5009232;28;20439;-53
2023/03/17 00:43:38;;;;;;;7.50;5.17;;;1.90;81.20;;;;;;5006635;28;20799;-53
2023/03/17 00:46:15;;;;;;;10.00;5.27;;;1.90;80.50;;;;;;5008832;28;20437;-52
2023/03/17 00:48:42;;;;;;;9.43;5.47;;;1.90;81.60;;;;;;5007314;28;20550;-52
2023/03/17 00:51:08;;;;;;;8.13;5.00;;;1.80;81.60;;;;;;5005472;28;20469;-53
2023/03/17 00:53:33;;;;;;;8.70;5.10;;;1.80;81.90;;;;;;5007944;28;20466;-56
2023/03/17 00:55:59;;;;;;;10.03;4.90;;;1.80;82.10;;;;;;5005914;28;20939;-53
2023/03/17 00:58:27;;;;;;;10.83;5.70;;;1.70;82.80;;;;;;5006137;28;20853;-53
2023/03/17 01:00:54;;;;;;;12.73;5.50;;;1.70;83.00;;;;;;5010273;28;20302;-52
2023/03/17 01:03:20;;;;;;;11.10;6.30;;;1.70;83.70;;;;;;5009341;28;20826;-53
2023/03/17 01:05:47;;;;;;;17.40;5.03;;;1.70;84.00;;;;;;5006261;28;20424;-52
2023/03/17 01:08:12;;;;;;;10.00;5.07;;;1.70;85.80;;;;;;5008638;28;20450;-53
2023/03/17 01:10:38;;;;;;;8.30;4.47;;;1.70;86.30;;;;;;5006947;28;20534;-53
2023/03/17 01:13:05;;;;;;;8.33;4.90;;;1.60;86.80;;;;;;5010653;28;20211;-55
2023/03/17 01:15:31;;;;;;;6.80;4.63;;;1.70;88.00;;;;;;5007307;28;20180;-52
2023/03/17 01:18:01;;;;;;;6.23;3.73;;;1.70;88.10;;;;;;5006303;28;20952;-52
2023/03/17 01:20:30;;;;;;;8.40;4.53;;;1.70;89.20;;;;;;5008621;28;20856;-52
2023/03/17 01:22:56;;;;;;;13.93;4.47;;;1.70;90.30;;;;;;5006388;28;20469;-51
2023/03/17 01:25:22;;;;;;;5.93;3.87;;;1.70;90.60;;;;;;5009540;28;20434;-51
2023/03/17 01:27:49;;;;;;;11.07;4.40;;;1.70;90.70;;;;;;5007137;28;20445;-54
2023/03/17 01:30:23;;;;;;;10.93;4.30;;;1.70;90.60;;;;;;5009446;28;20439;-54
2023/03/17 01:32:49;;;;;;;7.53;4.07;;;1.70;90.50;;;;;;5004641;28;20457;-52
2023/03/17 01:35:16;;;;;;;6.37;4.00;;;1.70;90.30;;;;;;5009740;28;20443;-54
2023/03/17 01:37:42;;;;;;;8.40;4.90;;;1.70;90.40;;;;;;5007088;28;20471;-53
2023/03/17 01:40:12;;;;;;;5.47;3.80;;;1.60;90.40;;;;;;5007595;28;20491;-54
2023/03/17 01:42:41;;;;;;;6.13;4.40;;;1.60;90.80;;;;;;5006243;28;20550;-50
2023/03/17 01:45:45;;;;;;;9.53;4.20;;;1.60;91.40;;;;;;5002425;28;20529;-52
2023/03/17 01:48:12;;;;;;;9.77;4.40;;;1.60;91.80;;;;;;5013156;28;20780;-53
2023/03/17 01:50:38;;;;;;;5.20;3.40;;;1.60;91.70;;;;;;5001944;28;20430;-54
2023/03/17 01:53:04;;;;;;;4.43;3.53;;;1.60;91.40;;;;;;5003994;28;20454;-53
2023/03/17 01:55:30;;;;;;;6.30;4.00;;;1.60;91.30;;;;;;5003898;28;20203;-53
2023/03/17 01:57:56;;;;;;;7.67;3.77;;;1.60;91.40;;;;;;5008905;28;20434;-55
2023/03/17 02:00:23;;;;;;;9.80;4.63;;;1.60;91.00;;;;;;5003861;28;20724;-53
2023/03/17 02:02:52;;;;;;;5.20;4.37;;;1.60;91.70;;;;;;5005928;28;21042;-53
2023/03/17 02:05:24;;;;;;;7.80;4.03;;;1.60;91.30;;;;;;5009507;28;20439;-52
2023/03/17 02:07:54;;;;;;;6.17;4.37;;;1.60;91.30;;;;;;5001664;28;20472;-52
2023/03/17 02:10:22;;;;;;;6.33;4.00;;;1.50;91.50;;;;;;5009768;28;20418;-53
2023/03/17 02:12:54;;;;;;;5.33;3.90;;;1.50;92.40;;;;;;5008074;28;20462;-52
2023/03/17 02:15:22;;;;;;;7.77;4.40;;;1.50;93.80;;;;;;5009778;28;20422;-51
2023/03/17 02:17:48;;;;;;;9.63;4.67;;;1.50;93.50;;;;;;5001357;28;20454;-53
2023/03/17 02:20:17;;;;;;;7.80;4.60;;;1.50;93.50;;;;;;5006193;28;20583;-51
2023/03/17 02:22:45;;;;;;;7.27;3.97;;;1.50;93.50;;;;;;5006742;28;20683;-51
2023/03/17 02:25:12;;;;;;;6.00;4.13;;;1.50;93.10;;;;;;5007632;28;20526;-54
2023/03/17 02:27:42;;;;;;;6.17;4.23;;;1.50;92.90;;;;;;5004477;28;21093;-51
2023/03/17 02:30:10;;;;;;;7.47;4.40;;;1.50;93.20;;;;;;5005472;28;20510;-52
2023/03/17 02:32:37;;;;;;;7.90;4.50;;;1.50;93.60;;;;;;5006691;28;20455;-52
2023/03/17 02:35:04;;;;;;;7.60;4.70;;;1.40;93.50;;;;;;5005322;28;21104;-51
2023/03/17 02:37:30;;;;;;;8.40;4.57;;;1.40;93.50;;;;;;5005901;28;20435;-53
2023/03/17 02:39:55;;;;;;;9.77;4.63;;;1.40;93.50;;;;;;5008580;28;20540;-53
2023/03/17 02:42:21;;;;;;;5.80;3.87;;;1.40;93.80;;;;;;5006207;28;20494;-53
2023/03/17 02:44:47;;;;;;;4.70;3.93;;;1.40;94.10;;;;;;5006163;28;20185;-51
2023/03/17 02:47:13;;;;;;;6.83;3.90;;;1.40;94.30;;;;;;5002972;28;21854;-51
2023/03/17 02:49:40;;;;;;;4.83;3.30;;;1.40;94.60;;;;;;5005622;28;20445;-51
2023/03/17 02:52:07;;;;;;;5.27;3.83;;;1.40;94.70;;;;;;5006182;28;20449;-51
2023/03/17 02:54:32;;;;;;;7.30;3.90;;;1.40;94.80;;;;;;5002360;28;20793;-54
2023/03/17 02:56:59;;;;;;;9.67;4.50;;;1.40;94.80;;;;;;5004304;28;20439;-53
2023/03/17 02:59:25;;;;;;;4.57;4.03;;;1.30;94.60;;;;;;5008964;28;20949;-52
2023/03/17 03:01:51;;;;;;;6.33;3.90;;;1.30;94.50;;;;;;5004658;28;20549;-55
2023/03/17 03:04:18;;;;;;;5.83;4.27;;;1.30;95.00;;;;;;5005996;28;20524;-54
2023/03/17 03:06:45;;;;;;;4.50;3.70;;;1.30;95.10;;;;;;5004107;28;20585;-50
2023/03/17 03:09:12;;;;;;;9.60;4.07;;;1.30;95.10;;;;;;5006543;28;20438;-52
2023/03/17 03:11:38;;;;;;;7.00;4.07;;;1.30;95.00;;;;;;5004176;28;20462;-51
2023/03/17 03:14:05;;;;;;;5.60;3.83;;;1.30;95.10;;;;;;5005157;28;20432;-51
2023/03/17 03:16:30;;;;;;;13.93;3.80;;;1.30;95.40;;;;;;4998254;28;20441;-51
2023/03/17 03:18:56;;;;;;;8.40;4.20;;;1.30;96.00;;;;;;5017234;28;20435;-53
2023/03/17 03:21:22;;;;;;;4.33;3.60;;;1.30;96.20;;;;;;4998208;28;20555;-52
2023/03/17 03:23:48;;;;;;;6.50;3.57;;;1.30;96.90;;;;;;5005897;28;20176;-51
2023/03/17 03:26:13;;;;;;;6.57;4.77;;;1.20;96.90;;;;;;5003597;28;20177;-54
2023/03/17 03:28:39;;;;;;;12.30;7.00;;;1.20;97.50;;;;;;5005194;28;20572;-52
2023/03/17 03:31:06;;;;;;;11.07;5.80;;;1.30;97.60;;;;;;5007047;28;20262;-50
2023/03/17 03:33:32;;;;;;;6.40;4.00;;;1.20;97.40;;;;;;5005175;28;20226;-49
2023/03/17 03:35:58;;;;;;;6.00;4.00;;;1.30;97.00;;;;;;5006195;28;20446;-53
2023/03/17 03:38:25;;;;;;;5.47;3.57;;;1.30;96.30;;;;;;5005388;28;20435;-52
2023/03/17 03:40:51;;;;;;;6.23;4.23;;;1.20;97.00;;;;;;5006241;28;20469;-51
2023/03/17 03:43:17;;;;;;;7.43;4.00;;;1.20;97.00;;;;;;5003984;28;20545;-51
2023/03/17 03:45:43;;;;;;;4.00;3.23;;;1.20;97.10;;;;;;5001264;28;20549;-52
2023/03/17 03:48:09;;;;;;;9.80;3.80;;;1.20;97.00;;;;;;5006714;28;20928;-51
2023/03/17 03:50:34;;;;;;;5.07;4.00;;;1.20;96.70;;;;;;5006037;28;20263;-52
2023/03/17 03:53:00;;;;;;;7.20;4.50;;;1.20;96.90;;;;;;5005540;28;20204;-51
2023/03/17 03:55:26;;;;;;;11.73;4.33;;;1.20;97.10;;;;;;4999109;28;20194;-51
2023/03/17 03:57:51;;;;;;;5.80;3.90;;;1.20;97.20;;;;;;5007028;28;20187;-52
2023/03/17 04:00:18;;;;;;;7.97;4.00;;;1.10;97.60;;;;;;5001497;28;20200;-52
2023/03/17 04:02:45;;;;;;;6.53;4.17;;;1.10;98.10;;;;;;5007853;28;20208;-51
2023/03/17 04:05:16;;;;;;;6.23;4.50;;;1.10;98.10;;;;;;5005704;28;20566;-51
2023/03/17 04:07:42;;;;;;;8.07;4.27;;;1.00;98.80;;;;;;5007011;28;20454;-53
2023/03/17 04:10:09;;;;;;;6.53;4.30;;;1.10;99.20;;;;;;5007532;28;20962;-52
2023/03/17 04:12:35;;;;;;;7.73;4.40;;;1.00;99.30;;;;;;5011137;28;20817;-50
2023/03/17 04:15:01;;;;;;;7.67;4.00;;;1.00;99.20;;;;;;5011164;28;20440;-50
2023/03/17 04:17:26;;;;;;;15.63;5.50;;;1.00;99.00;;;;;;5010122;28;20668;-51
2023/03/17 04:19:52;;;;;;;6.73;4.90;;;1.00;99.10;;;;;;5008921;28;20479;-53
2023/03/17 04:22:18;;;;;;;8.00;4.40;;;1.00;99.40;;;;;;5005631;28;20215;-52
2023/03/17 04:24:43;;;;;;;5.23;3.93;;;0.90;99.90;;;;;;5007563;28;20179;-51
2023/03/17 04:27:09;;;;;;;6.53;3.90;;;0.90;99.90;;;;;;5007705;28;20440;-51
2023/03/17 04:29:35;;;;;;;8.60;4.47;;;0.90;99.90;;;;;;5006448;28;20270;-52
2023/03/17 04:32:01;;;;;;;6.83;4.10;;;0.90;99.90;;;;;;5010550;28;20697;-51
2023/03/17 04:34:27;;;;;;;5.37;4.20;;;0.90;99.90;;;;;;5011439;28;20186;-52
2023/03/17 04:36:53;;;;;;;6.90;4.33;;;0.90;99.90;;;;;;5010539;28;20435;-53
2023/03/17 04:39:19;;;;;;;5.60;4.43;;;0.90;99.90;;;;;;5001496;28;20842;-52
2023/03/17 04:41:45;;;;;;;10.23;4.87;;;0.90;99.90;;;;;;5007556;28;20228;-52
2023/03/17 04:44:11;;;;;;;9.67;4.70;;;0.90;99.90;;;;;;5008843;28;20180;-54
2023/03/17 04:46:37;;;;;;;6.73;4.30;;;0.90;99.90;;;;;;5009587;28;20431;-54
2023/03/17 04:49:03;;;;;;;6.47;4.67;;;0.80;99.90;;;;;;5008572;28;20430;-51
2023/03/17 04:51:29;;;;;;;9.03;5.10;;;0.90;99.90;;;;;;5010007;28;20554;-50
2023/03/17 04:53:55;;;;;;;14.17;5.57;;;0.80;99.90;;;;;;5006735;28;20426;-53
2023/03/17 04:56:20;;;;;;;10.27;5.70;;;0.90;99.90;;;;;;5000600;28;20445;-53
2023/03/17 04:58:46;;;;;;;11.30;4.80;;;0.80;99.90;;;;;;5002187;28;20179;-52
2023/03/17 05:01:11;;;;;;;10.33;5.37;;;0.80;99.90;;;;;;5004451;28;20205;-54
2023/03/17 05:03:37;;;;;;;6.03;4.40;;;0.80;99.90;;;;;;5002740;28;20251;-54
2023/03/17 05:06:03;;;;;;;9.03;4.70;;;0.80;99.90;;;;;;5008464;28;20203;-54
2023/03/17 05:08:29;;;;;;;10.43;5.17;;;0.70;99.90;;;;;;5005000;28;20192;-53
2023/03/17 05:10:56;;;;;;;7.90;5.10;;;0.80;99.90;;;;;;4996765;28;20442;-52
2023/03/17 05:13:23;;;;;;;7.23;4.60;;;0.70;99.90;;;;;;4994663;28;20704;-53
2023/03/17 05:15:50;;;;;;;9.40;5.67;;;0.70;99.90;;;;;;5000401;28;20525;-52
2023/03/17 05:18:17;;;;;;;7.20;4.80;;;0.70;99.90;;;;;;5001669;28;20956;-52
2023/03/17 05:20:43;;;;;;;7.30;4.60;;;0.70;99.90;;;;;;4994243;28;20473;-53
2023/03/17 05:23:09;;;;;;;5.90;4.50;;;0.70;99.90;;;;;;5004492;28;20978;-51
2023/03/17 05:25:35;;;;;;;6.63;4.73;;;0.60;99.90;;;;;;5003831;28;20189;-50
2023/03/17 05:28:01;;;;;;;11.33;5.27;;;0.70;99.90;;;;;;5024113;28;20183;-52
2023/03/17 05:30:27;;;;;;;7.00;4.90;;;0.60;99.90;;;;;;5003695;28;20437;-51
2023/03/17 05:32:53;;;;;;;9.70;4.93;;;0.60;99.90;;;;;;5003547;28;20801;-53
2023/03/17 05:35:18;;;;;;;8.07;5.00;;;0.60;99.90;;;;;;5000091;28;20454;-51
2023/03/17 05:37:45;;;;;;;10.37;5.53;;;0.60;99.90;;;;;;4991719;28;20187;-53
2023/03/17 05:40:13;;;;;;;10.07;6.20;;;0.60;99.90;;;;;;4997948;28;20742;-53
2023/03/17 05:42:40;;;;;;;11.20;5.43;;;0.60;99.90;;;;;;4994303;28;20569;-51
2023/03/17 05:45:07;;;;;;;8.17;5.50;;;0.60;99.90;;;;;;5000187;28;20485;-50
2023/03/17 05:47:33;;;;;;;11.27;6.40;;;0.60;99.90;;;;;;5008216;28;20847;-52
2023/03/17 05:49:59;;;;;;;6.97;5.23;;;0.60;99.90;;;;;;5003746;28;20537;-52
2023/03/17 05:52:25;;;;;;;9.40;5.30;;;0.60;99.90;;;;;;4996329;28;20230;-53
2023/03/17 05:54:52;;;;;;;10.43;5.43;;;0.60;99.90;;;;;;5002837;28;20795;-53
2023/03/17 05:57:18;;;;;;;10.30;5.53;;;0.60;99.90;;;;;;5005408;28;20489;-51
2023/03/17 05:59:43;;;;;;;11.47;6.03;;;0.60;99.90;;;;;;5009190;28;20960;-52
2023/03/17 06:02:10;;;;;;;14.57;6.93;;;0.60;99.90;;;;;;5009358;28;20440;-52
2023/03/17 06:04:36;;;;;;;8.47;6.00;;;0.60;99.90;;;;;;5004613;28;20195;-50
2023/03/17 06:07:01;;;;;;;12.10;5.37;;;0.60;99.90;;;;;;5007225;28;20427;-50
2023/03/17 06:09:27;;;;;;;7.90;5.17;;;0.60;99.90;;;;;;5006328;28;20536;-51
2023/03/17 06:11:53;;;;;;;13.93;5.60;;;0.60;99.90;;;;;;5005784;28;20202;-51
2023/03/17 06:14:18;;;;;;;14.63;7.77;;;0.60;99.90;;;;;;5006939;28;20884;-51
2023/03/17 06:16:44;;;;;;;9.83;6.87;;;0.70;99.90;;;;;;5009104;28;20640;-54
2023/03/17 06:19:11;;;;;;;10.47;6.13;;;0.70;99.90;;;;;;5007991;28;20218;-53
2023/03/17 06:21:36;;;;;;;9.23;6.10;;;0.70;99.90;;;;;;5007775;28;20500;-53
2023/03/17 06:24:02;;;;;;;9.53;6.00;;;0.70;99.90;;;;;;5005684;28;20430;-52
2023/03/17 06:26:28;;;;;;;11.03;6.47;;;0.80;99.90;;;;;;5007631;28;20175;-53
2023/03/17 06:28:53;;;;;;;13.80;6.40;;;0.80;99.90;;;;;;5008527;28;20167;-51
2023/03/17 06:31:19;;;;;;;9.33;5.40;;;0.80;99.90;;;;;;5007149;28;20848;-55
2023/03/17 06:33:45;;;;;;;13.60;5.93;;;0.90;99.90;;;;;;5005313;28;20218;-54
2023/03/17 06:36:11;;;;;;;10.40;5.47;;;1.00;99.90;;;;;;5003074;28;20179;-52
2023/03/17 06:38:36;;;;;;;15.50;5.87;;;1.00;99.90;;;;;;5005535;28;20551;-51
2023/03/17 06:41:02;;;;;;;10.30;5.00;;;1.10;99.90;;;;;;4997326;28;20466;-53
2023/03/17 06:43:28;;;;;;;15.57;5.73;;;1.30;99.90;;;;;;4995382;28;20272;-52
2023/03/17 06:45:54;;;;;;;10.03;6.20;;;1.40;99.90;;;;;;5002478;28;20180;-53
2023/03/17 06:48:22;;;;;;;12.43;6.17;;;1.50;99.90;;;;;;5007098;28;20212;-52
2023/03/17 06:50:47;;;;;;;10.37;6.00;;;1.60;99.90;;;;;;5006473;28;20438;-52
2023/03/17 06:53:13;;;;;;;10.40;5.33;;;1.60;99.90;;;;;;5007551;28;20469;-53
2023/03/17 06:55:40;;;;;;;9.20;5.23;;;1.70;99.90;;;;;;5002444;28;20195;-56
2023/03/17 06:58:08;;;;;;;8.47;4.93;;;1.70;99.90;;;;;;5010511;28;20206;-59
2023/03/17 07:00:33;;;;;;;9.50;5.70;;;1.80;99.90;;;;;;5007208;28;20458;-53
2023/03/17 07:02:59;;;;;;;11.83;5.33;;;1.90;99.90;;;;;;5004339;28;20458;-52
2023/03/17 07:05:25;;;;;;;11.40;6.17;;;1.90;99.00;;;;;;5005509;28;20542;-53
2023/03/17 07:07:51;;;;;;;13.27;5.67;;;1.90;99.20;;;;;;5009146;28;20423;-54
2023/03/17 07:10:17;;;;;;;11.37;6.97;;;1.90;99.10;;;;;;5003558;28;20526;-56
2023/03/17 07:12:43;;;;;;;15.00;7.17;;;2.00;99.90;;;;;;5004346;28;20192;-53
2023/03/17 07:15:11;;;;;;;11.93;6.53;;;2.00;99.90;;;;;;5005880;28;20426;-53
2023/03/17 07:17:37;;;;;;;13.33;6.40;;;2.00;99.70;;;;;;5002620;28;20435;-55
2023/03/17 07:20:03;;;;;;;18.47;7.40;;;2.10;99.90;;;;;;5003930;28;20479;-53
2023/03/17 07:22:29;;;;;;;10.30;5.47;;;2.20;99.00;;;;;;5002395;28;20200;-54
2023/03/17 07:24:54;;;;;;;8.63;4.70;;;2.20;98.30;;;;;;5006714;28;20429;-52
2023/03/17 07:27:21;;;;;;;8.20;5.00;;;2.30;99.20;;;;;;5007954;28;20222;-52
2023/03/17 07:29:46;;;;;;;10.33;5.03;;;2.40;97.80;;;;;;5002906;28;20173;-52
2023/03/17 07:32:12;;;;;;;7.60;4.93;;;2.40;96.20;;;;;;5005708;28;21122;-53
2023/03/17 07:34:38;;;;;;;10.43;4.97;;;2.50;96.30;;;;;;4999667;28;20190;-52
2023/03/17 07:37:05;;;;;;;9.27;4.60;;;2.50;96.70;;;;;;5007005;28;20231;-53
2023/03/17 07:39:31;;;;;;;5.23;4.60;;;2.60;96.20;;;;;;5002616;28;20203;-52
2023/03/17 07:41:57;;;;;;;6.93;4.20;;;2.70;95.80;;;;;;5006476;28;20539;-51
2023/03/17 07:44:24;;;;;;;6.50;4.73;;;2.80;96.50;;;;;;5008049;28;20518;-52
2023/03/17 07:46:50;;;;;;;11.13;5.63;;;2.90;96.20;;;;;;5011283;28;20648;-51
2023/03/17 07:49:17;;;;;;;16.57;6.70;;;3.00;95.90;;;;;;5011472;28;20431;-54
2023/03/17 07:51:43;;;;;;;9.17;5.83;;;3.00;96.10;;;;;;5010794;28;20951;-52
2023/03/17 07:54:10;;;;;;;11.40;6.90;;;3.10;95.50;;;;;;5007560;28;20513;-52
2023/03/17 07:56:37;;;;;;;7.53;5.17;;;3.20;95.70;;;;;;5011419;28;20267;-53
2023/03/17 07:59:03;;;;;;;7.00;4.57;;;3.30;95.90;;;;;;5010983;28;20791;-52
2023/03/17 08:01:30;;;;;;;7.83;4.40;;;3.40;94.50;;;;;;5009011;28;20459;-54
2023/03/17 08:03:55;;;;;;;6.47;3.80;;;3.50;93.60;;;;;;5008625;28;20514;-50
2023/03/17 08:06:24;;;;;;;4.63;3.47;;;3.60;92.90;;;;;;5007652;28;20568;-51
2023/03/17 08:08:50;;;;;;;7.53;3.70;;;3.70;90.90;;;;;;5008867;28;20245;-55
2023/03/17 08:11:16;;;;;;;5.87;3.63;;;3.80;90.30;;;;;;5006109;28;20510;-54
2023/03/17 08:13:42;;;;;;;7.10;4.27;;;4.00;90.00;;;;;;5011605;28;20456;-51
2023/03/17 08:16:07;;;;;;;6.43;4.03;;;4.10;86.70;;;;;;5005455;28;20216;-53
2023/03/17 08:18:33;;;;;;;4.27;3.47;;;4.20;84.10;;;;;;5008010;28;20208;-54
2023/03/17 08:20:59;;;;;;;10.20;4.33;;;4.30;83.90;;;;;;5006919;28;20192;-52
2023/03/17 08:23:25;;;;;;;6.90;3.77;;;4.50;83.90;;;;;;5008563;28;20820;-53
2023/03/17 08:26:03;;;;;;;5.10;3.90;;;4.60;83.10;;;;;;5006235;28;20569;-52
2023/03/17 08:28:29;;;;;;;3.70;3.10;;;4.70;83.60;;;;;;5005333;28;20450;-54
2023/03/17 08:31:22;;;;;;;7.43;4.30;;;4.90;82.10;;;;;;5006074;28;21030;-52
2023/03/17 08:33:51;;;;;;;6.80;4.53;;;5.10;81.50;;;;;;5005102;28;20437;-51
2023/03/17 08:36:18;;;;;;;6.50;3.60;;;5.20;80.90;;;;;;5005557;28;22068;-54
2023/03/17 08:38:45;;;;;;;8.60;3.50;;;5.40;79.10;;;;;;5002677;28;20489;-56
2023/03/17 08:41:13;;;;;;;5.27;3.67;;;5.50;78.40;;;;;;5004692;28;20565;-54
2023/03/17 08:43:40;;;;;;;7.03;3.83;;;5.60;74.80;;;;;;5007412;28;20446;-56
2023/03/17 08:46:19;;;;;;;5.57;3.87;;;5.60;74.30;;;;;;5011214;28;20823;-55
2023/03/17 08:48:46;;;;;;;4.00;3.50;;;5.70;73.60;;;;;;5005138;28;20910;-53
2023/03/17 08:51:13;;;;;;;8.07;3.47;;;5.80;72.50;;;;;;5008033;28;20451;-56
2023/03/17 08:53:39;;;;;;;4.57;3.53;;;5.80;71.60;;;;;;5004017;28;20501;-54
2023/03/17 08:56:05;;;;;;;4.77;3.90;;;5.90;71.90;;;;;;5005675;28;20920;-52
2023/03/17 08:58:32;;;;;;;6.30;3.80;;;6.00;71.80;;;;;;5009666;28;20457;-55
2023/03/17 09:01:03;;;;;;;7.13;4.20;;;6.20;72.20;;;;;;5010127;28;20499;-55
2023/03/17 09:03:29;;;;;;;5.93;4.00;;;6.40;71.80;;;;;;5002561;28;20481;-53
2023/03/17 09:05:56;;;;;;;7.37;3.73;;;6.60;71.30;;;;;;5006960;28;20420;-54
2023/03/17 09:08:22;;;;;;;6.43;4.03;;;6.80;69.20;;;;;;5007589;28;20435;-53
2023/03/17 09:10:48;;;;;;;4.30;3.30;;;7.00;68.20;;;;;;5005268;28;20455;-52
2023/03/17 09:13:14;;;;;;;5.53;4.10;;;7.30;66.80;;;;;;5008771;28;20632;-56
2023/03/17 09:15:39;;;;;;;6.60;4.40;;;7.50;65.90;;;;;;5008698;28;20365;-54
2023/03/17 09:18:06;;;;;;;6.00;4.33;;;7.80;65.90;;;;;;5003305;28;20177;-54
2023/03/17 09:20:32;;;;;;;6.43;3.87;;;8.10;64.40;;;;;;5003414;28;20695;-53
2023/03/17 09:22:58;;;;;;;6.37;4.77;;;8.30;64.10;;;;;;5009856;28;20463;-57
2023/03/17 09:25:24;;;;;;;6.63;4.47;;;8.60;64.30;;;;;;5005440;28;20428;-53
2023/03/17 09:27:50;;;;;;;6.20;4.60;;;8.80;64.60;;;;;;5007766;28;20223;-54
2023/03/17 09:30:16;;;;;;;8.20;4.80;;;9.00;63.40;;;;;;5006946;28;21182;-53
2023/03/17 09:32:43;;;;;;;7.30;5.10;;;9.20;62.40;;;;;;5009739;28;20212;-54
2023/03/17 09:35:09;;;;;;;8.67;5.10;;;9.40;60.20;;;;;;4997247;28;20443;-53
2023/03/17 09:37:35;;;;;;;8.27;5.20;;;9.50;60.20;;;;;;5005019;28;20936;-54
2023/03/17 09:40:02;;;;;;;6.93;4.33;;;9.70;59.60;;;;;;5008336;28;20550;-51
2023/03/17 09:42:54;;;;;;;8.03;4.77;;;9.80;58.80;;;;;;5009259;28;20446;-54
2023/03/17 09:45:35;;;;;;;10.23;4.60;;;10.00;56.20;;;;;;5007467;28;20490;-53
2023/03/17 09:48:27;;;;;;;10.53;5.90;;;10.20;55.70;;;;;;5000939;28;20414;-56
2023/03/17 09:51:10;;;;;;;10.23;5.90;;;10.40;55.20;;;;;;5006247;28;20439;-52
2023/03/17 09:54:04;;;;;;;5.80;4.30;;;10.60;54.70;;;;;;5008187;28;20423;-53
2023/03/17 09:56:32;;;;;;;11.77;5.27;;;10.80;52.60;;;;;;5004518;28;20438;-56
2023/03/17 09:59:19;;;;;;;7.03;4.70;;;11.00;52.40;;;;;;5002561;28;20463;-53
2023/03/17 10:01:45;;;;;;;6.90;5.27;;;11.20;52.50;;;;;;4997844;28;20455;-60
2023/03/17 10:04:11;;;;;;;8.60;4.90;;;11.40;51.40;;;;;;5004884;28;20477;-52
2023/03/17 10:06:42;;;;;;;17.40;5.10;;;11.50;52.00;;;;;;5005457;28;20578;-54
2023/03/17 10:09:13;;;;;;;12.90;5.53;;;11.70;52.10;;;;;;5001331;28;20161;-53
2023/03/17 10:11:49;;;;;;;8.37;4.40;;;11.90;51.30;;;;;;5007318;28;20451;-55
2023/03/17 10:14:46;;;;;;;11.50;5.00;;;12.00;50.40;;;;;;5007924;28;20480;-55
2023/03/17 10:17:11;;;;;;;7.20;4.73;;;12.10;50.40;;;;;;5003952;28;20438;-53
2023/03/17 10:19:43;;;;;;;12.20;4.23;;;12.20;50.40;;;;;;5006092;28;20778;-53
2023/03/17 10:22:43;;;;;;;12.40;5.30;;;12.20;50.20;;;;;;5003221;28;20594;-54
2023/03/17 10:25:15;;;;;;;8.63;5.33;;;12.30;50.40;;;;;;4999777;28;20865;-55
2023/03/17 10:27:43;;;;;;;6.90;4.40;;;12.40;50.50;;;;;;4998361;28;20443;-53
2023/03/17 10:30:21;;;;;;;10.77;5.20;;;12.50;49.60;;;;;;5004096;28;20454;-53
2023/03/17 10:32:47;;;;;;;11.83;4.40;;;12.50;49.50;;;;;;5008926;28;20485;-55
2023/03/17 10:35:15;;;;;;;7.37;4.40;;;12.60;49.70;;;;;;5000937;28;20438;-54
2023/03/17 10:37:41;;;;;;;16.70;5.20;;;12.70;48.90;;;;;;5008353;28;20431;-54
2023/03/17 10:40:19;;;;;;;8.90;4.60;;;12.70;48.80;;;;;;5006629;28;20472;-57
2023/03/17 10:43:02;;;;;;;12.87;5.60;;;12.70;48.90;;;;;;5004401;28;20458;-55
2023/03/17 10:45:28;;;;;;;8.23;4.50;;;12.80;49.40;;;;;;5003086;28;20423;-54
2023/03/17 10:47:56;;;;;;;9.60;5.27;;;12.90;48.90;;;;;;5004241;28;20859;-53
2023/03/17 10:50:27;;;;;;;10.33;5.03;;;13.00;49.00;;;;;;5000644;28;20337;-55
2023/03/17 10:53:18;;;;;;;4.80;4.00;;;13.10;48.80;;;;;;5003062;28;20458;-57
2023/03/17 10:55:51;;;;;;;11.67;4.77;;;13.10;47.70;;;;;;5006358;28;20538;-56
2023/03/17 10:58:18;;;;;;;6.03;4.10;;;13.10;47.70;;;;;;4997533;28;20479;-53
2023/03/17 11:00:58;;;;;;;7.10;4.57;;;13.30;47.90;;;;;;5004314;28;20460;-55
2023/03/17 11:03:34;;;;;;;11.10;4.00;;;13.40;46.60;;;;;;5009585;28;20503;-54
2023/03/17 11:06:01;;;;;;;7.47;3.93;;;13.70;47.40;;;;;;5005975;28;20998;-57
2023/03/17 11:08:34;;;;;;;8.17;3.93;;;13.80;46.80;;;;;;5007930;28;20411;-52
2023/03/17 11:11:05;;;;;;;10.80;3.60;;;14.10;46.10;;;;;;5003126;28;20430;-56
2023/03/17 11:13:31;;;;;;;6.07;3.87;;;14.30;45.70;;;;;;5009213;28;20438;-53
2023/03/17 11:16:16;;;;;;;4.43;3.60;;;14.40;45.20;;;;;;5001735;28;20510;-55
2023/03/17 11:18:42;;;;;;;6.70;3.87;;;14.60;44.90;;;;;;5003191;28;20493;-54
2023/03/17 11:21:19;;;;;;;6.33;3.40;;;14.80;45.70;;;;;;5008215;28;21092;-53
2023/03/17 11:23:47;;;;;;;7.20;4.00;;;15.00;45.90;;;;;;5008743;28;20430;-51
2023/03/17 11:26:39;;;;;;;8.63;4.57;;;15.20;45.50;;;;;;5006983;28;20490;-55
2023/03/17 11:29:28;;;;;;;5.97;4.30;;;15.40;45.50;;;;;;5008534;28;20785;-55
2023/03/17 11:31:57;;;;;;;15.73;5.17;;;15.60;45.50;;;;;;4989557;28;20444;-52
2023/03/17 11:34:35;;;;;;;9.57;4.50;;;15.70;45.20;;;;;;5006103;28;20420;-51
2023/03/17 11:37:16;;;;;;;7.93;4.60;;;15.90;45.10;;;;;;4994895;28;20481;-54
2023/03/17 11:40:06;;;;;;;6.73;4.67;;;16.00;44.70;;;;;;5007180;28;21021;-52
2023/03/17 11:42:41;;;;;;;10.77;4.87;;;16.00;44.20;;;;;;5003415;28;20439;-55
2023/03/17 11:45:10;;;;;;;6.67;3.80;;;16.10;44.20;;;;;;5001135;28;20952;-53
2023/03/17 11:47:53;;;;;;;9.20;4.13;;;16.10;43.80;;;;;;5006779;28;20526;-51
2023/03/17 11:50:45;;;;;;;5.53;3.83;;;16.00;44.00;;;;;;5002145;28;20795;-49
2023/03/17 11:53:35;;;;;;;7.90;4.30;;;16.00;44.30;;;;;;5007644;28;20815;-53
2023/03/17 11:56:08;;;;;;;5.97;4.37;;;15.90;43.50;;;;;;5006532;28;20473;-50
2023/03/17 11:58:41;;;;;;;6.83;4.00;;;15.90;44.00;;;;;;5005721;28;20462;-52
2023/03/17 12:01:11;;;;;;;8.77;4.77;;;16.10;44.40;;;;;;4999246;28;20463;-53
2023/03/17 12:04:07;;;;;;;17.13;4.53;;;16.30;43.50;;;;;;4997475;28;20428;-52
2023/03/17 12:06:38;;;;;;;5.30;3.67;;;16.50;43.00;;;;;;5000834;28;20447;-53
2023/03/17 12:09:25;;;;;;;11.33;3.80;;;16.70;42.40;;;;;;5004760;28;20432;-53
2023/03/17 12:11:52;;;;;;;5.30;3.27;;;17.10;43.30;;;;;;5001848;28;20459;-55
2023/03/17 12:14:17;;;;;;;4.00;2.97;;;17.40;42.70;;;;;;5002748;28;20772;-54
2023/03/17 12:16:51;;;;;;;4.30;2.80;;;17.50;41.40;;;;;;5006551;28;20442;-54
2023/03/17 12:19:38;;;;;;;6.60;3.77;;;17.50;40.10;;;;;;5006991;28;20184;-53
2023/03/17 12:22:21;;;;;;;6.07;3.10;;;17.40;39.30;;;;;;4994799;28;20578;-56
2023/03/17 12:24:55;;;;;;;5.07;3.40;;;17.40;39.90;;;;;;5001601;28;20446;-56
2023/03/17 12:27:26;;;;;;;3.53;2.93;;;17.40;40.20;;;;;;5003818;28;20434;-53
2023/03/17 12:29:56;;;;;;;13.23;2.90;;;17.30;39.60;;;;;;5005932;28;20509;-58
2023/03/17 12:32:48;;;;;;;4.87;2.60;;;17.30;39.30;;;;;;5007199;28;20489;-54
2023/03/17 12:35:36;;;;;;;3.13;2.73;;;17.30;38.30;;;;;;5008087;28;20522;-56
2023/03/17 12:38:08;;;;;;;2.83;2.53;;;17.40;38.60;;;;;;5011428;28;20427;-52
2023/03/17 12:41:18;;;;;;;3.33;2.43;;;17.50;38.50;;;;;;5006039;28;20476;-53
2023/03/17 12:44:09;;;;;;;3.03;1.70;;;17.70;37.60;;;;;;4994350;28;20435;-55
2023/03/17 12:46:46;;;;;;;3.10;1.90;;;17.80;36.30;;;;;;5001257;28;20476;-53
2023/03/17 12:49:37;;;;;;;3.70;2.27;;;18.00;34.30;;;;;;5008705;28;20439;-54
2023/03/17 12:52:38;;;;;;;3.67;2.10;;;18.10;34.30;;;;;;5005707;28;20465;-55
2023/03/17 12:55:11;;;;;;;2.40;1.63;;;18.10;33.30;;;;;;5005084;28;20448;-51
2023/03/17 12:57:43;;;;;;;3.80;1.70;;;18.20;32.60;;;;;;5000748;28;20435;-53
2023/03/17 13:00:32;;;;;;;3.57;2.10;;;18.50;33.70;;;;;;5003448;28;20980;-56
2023/03/17 13:03:16;;;;;;;2.40;1.87;;;19.00;33.20;;;;;;5010775;28;20431;-54